sensor_id;sensor_type;location;lat;lon;timestamp;temperature;humidity
10433;DHT22;5263;48.680;9.004;2022-09-30T00:00:19;8.00;99.90
10433;DHT22;5263;48.680;9.004;2022-09-30T00:02:45;8.10;99.90
10433;DHT22;5263;48.680;9.004;2022-09-30T00:05:10;8.10;99.90
10433;DHT22;5263;48.680;9.004;2022-09-30T00:07:36;8.20;99.90
10433;DHT22;5263;48.680;9.004;2022-09-30T00:10:01;8.30;99.90
10433;DHT22;5263;48.680;9.004;2022-09-30T00:12:27;8.00;99.90
10433;DHT22;5263;48.680;9.004;2022-09-30T00:14:53;7.90;99.90
10433;DHT22;5263;48.680;9.004;2022-09-30T00:17:19;7.80;99.90
10433;DHT22;5263;48.680;9.004;2022-09-30T00:19:45;7.80;99.90
10433;DHT22;5263;48.680;9.004;2022-09-30T00:22:11;8.00;99.90
10433;DHT22;5263;48.680;9.004;2022-09-30T00:24:37;8.30;99.90
10433;DHT22;5263;48.680;9.004;2022-09-30T00:27:02;8.50;99.90
10433;DHT22;5263;48.680;9.004;2022-09-30T00:29:28;8.50;99.90
10433;DHT22;5263;48.680;9.004;2022-09-30T00:31:54;8.60;99.90
10433;DHT22;5263;48.680;9.004;2022-09-30T00:34:19;8.60;99.90
10433;DHT22;5263;48.680;9.004;2022-09-30T00:36:51;8.40;99.90
10433;DHT22;5263;48.680;9.004;2022-09-30T00:39:26;8.30;99.90
10433;DHT22;5263;48.680;9.004;2022-09-30T00:41:56;8.20;99.90
10433;DHT22;5263;48.680;9.004;2022-09-30T00:45:08;8.00;99.90
10433;DHT22;5263;48.680;9.004;2022-09-30T00:50:39;8.10;99.90
10433;DHT22;5263;48.680;9.004;2022-09-30T00:53:15;8.20;99.90
10433;DHT22;5263;48.680;9.004;2022-09-30T00:58:36;8.20;99.90
10433;DHT22;5263;48.680;9.004;2022-09-30T01:01:03;8.30;99.90
10433;DHT22;5263;48.680;9.004;2022-09-30T01:03:57;8.30;99.90
10433;DHT22;5263;48.680;9.004;2022-09-30T01:06:23;8.30;99.90
10433;DHT22;5263;48.680;9.004;2022-09-30T01:08:49;8.30;99.90
10433;DHT22;5263;48.680;9.004;2022-09-30T01:11:16;8.40;99.90
10433;DHT22;5263;48.680;9.004;2022-09-30T01:13:43;8.40;99.90
10433;DHT22;5263;48.680;9.004;2022-09-30T01:21:55;8.20;99.90
10433;DHT22;5263;48.680;9.004;2022-09-30T01:27:04;8.20;99.90
10433;DHT22;5263;48.680;9.004;2022-09-30T01:38:30;8.30;99.90
10433;DHT22;5263;48.680;9.004;2022-09-30T01:41:52;8.40;99.90
10433;DHT22;5263;48.680;9.004;2022-09-30T01:44:26;8.30;99.90
10433;DHT22;5263;48.680;9.004;2022-09-30T01:47:26;8.30;99.90
10433;DHT22;5263;48.680;9.004;2022-09-30T01:55:38;8.50;99.90
10433;DHT22;5263;48.680;9.004;2022-09-30T01:58:18;8.30;99.90
10433;DHT22;5263;48.680;9.004;2022-09-30T02:00:49;8.50;99.90
10433;DHT22;5263;48.680;9.004;2022-09-30T02:03:22;8.50;99.90
10433;DHT22;5263;48.680;9.004;2022-09-30T02:06:04;8.60;99.90
10433;DHT22;5263;48.680;9.004;2022-09-30T02:08:39;8.60;99.90
10433;DHT22;5263;48.680;9.004;2022-09-30T02:11:42;8.40;99.90
10433;DHT22;5263;48.680;9.004;2022-09-30T02:14:31;8.30;99.90
10433;DHT22;5263;48.680;9.004;2022-09-30T02:17:09;8.30;99.90
10433;DHT22;5263;48.680;9.004;2022-09-30T02:22:48;8.40;99.90
10433;DHT22;5263;48.680;9.004;2022-09-30T02:25:19;8.50;99.90
10433;DHT22;5263;48.680;9.004;2022-09-30T02:27:53;8.60;99.90
10433;DHT22;5263;48.680;9.004;2022-09-30T02:30:21;8.60;99.90
10433;DHT22;5263;48.680;9.004;2022-09-30T02:32:52;8.70;99.90
10433;DHT22;5263;48.680;9.004;2022-09-30T02:38:06;8.40;99.90
10433;DHT22;5263;48.680;9.004;2022-09-30T02:40:41;8.20;99.90
10433;DHT22;5263;48.680;9.004;2022-09-30T02:43:08;8.30;99.90
10433;DHT22;5263;48.680;9.004;2022-09-30T02:45:49;8.10;99.90
10433;DHT22;5263;48.680;9.004;2022-09-30T02:50:56;7.90;99.90
10433;DHT22;5263;48.680;9.004;2022-09-30T02:53:39;7.90;99.90
10433;DHT22;5263;48.680;9.004;2022-09-30T02:58:33;8.00;99.90
10433;DHT22;5263;48.680;9.004;2022-09-30T03:01:02;8.20;99.90
10433;DHT22;5263;48.680;9.004;2022-09-30T03:03:29;8.30;99.90
10433;DHT22;5263;48.680;9.004;2022-09-30T03:05:57;8.30;99.90
10433;DHT22;5263;48.680;9.004;2022-09-30T03:08:23;8.20;99.90
10433;DHT22;5263;48.680;9.004;2022-09-30T03:10:50;8.00;99.90
10433;DHT22;5263;48.680;9.004;2022-09-30T03:22:05;8.20;99.90
10433;DHT22;5263;48.680;9.004;2022-09-30T03:27:46;8.20;99.90
10433;DHT22;5263;48.680;9.004;2022-09-30T03:30:15;8.20;99.90
10433;DHT22;5263;48.680;9.004;2022-09-30T03:33:07;8.00;99.90
10433;DHT22;5263;48.680;9.004;2022-09-30T03:35:51;7.60;99.90
10433;DHT22;5263;48.680;9.004;2022-09-30T03:41:18;7.30;99.90
10433;DHT22;5263;48.680;9.004;2022-09-30T03:43:55;7.30;99.90
10433;DHT22;5263;48.680;9.004;2022-09-30T03:46:37;7.40;99.90
10433;DHT22;5263;48.680;9.004;2022-09-30T03:49:09;7.40;99.90
10433;DHT22;5263;48.680;9.004;2022-09-30T03:51:38;7.60;99.90
10433;DHT22;5263;48.680;9.004;2022-09-30T03:54:09;7.80;99.90
10433;DHT22;5263;48.680;9.004;2022-09-30T03:56:36;7.70;99.90
10433;DHT22;5263;48.680;9.004;2022-09-30T03:59:21;7.60;99.90
10433;DHT22;5263;48.680;9.004;2022-09-30T04:01:47;7.30;99.90
10433;DHT22;5263;48.680;9.004;2022-09-30T04:04:13;7.40;99.90
10433;DHT22;5263;48.680;9.004;2022-09-30T04:06:38;7.30;99.90
10433;DHT22;5263;48.680;9.004;2022-09-30T04:09:04;7.20;99.90
10433;DHT22;5263;48.680;9.004;2022-09-30T04:11:29;7.30;99.90
10433;DHT22;5263;48.680;9.004;2022-09-30T04:13:55;7.50;99.90
10433;DHT22;5263;48.680;9.004;2022-09-30T04:16:21;7.60;99.90
10433;DHT22;5263;48.680;9.004;2022-09-30T04:18:46;7.70;99.90
10433;DHT22;5263;48.680;9.004;2022-09-30T04:21:13;7.60;99.90
10433;DHT22;5263;48.680;9.004;2022-09-30T04:23:40;7.70;99.90
10433;DHT22;5263;48.680;9.004;2022-09-30T04:26:08;7.80;99.90
10433;DHT22;5263;48.680;9.004;2022-09-30T04:28:34;7.90;99.90
10433;DHT22;5263;48.680;9.004;2022-09-30T04:31:04;8.00;99.90
10433;DHT22;5263;48.680;9.004;2022-09-30T04:33:31;8.30;99.90
10433;DHT22;5263;48.680;9.004;2022-09-30T04:35:58;8.10;99.90
10433;DHT22;5263;48.680;9.004;2022-09-30T04:38:25;7.70;99.90
10433;DHT22;5263;48.680;9.004;2022-09-30T04:40:52;7.80;99.90
10433;DHT22;5263;48.680;9.004;2022-09-30T04:43:19;7.60;99.90
10433;DHT22;5263;48.680;9.004;2022-09-30T04:45:47;7.50;99.90
10433;DHT22;5263;48.680;9.004;2022-09-30T04:48:13;7.50;99.90
10433;DHT22;5263;48.680;9.004;2022-09-30T04:50:39;7.60;99.90
10433;DHT22;5263;48.680;9.004;2022-09-30T04:53:06;7.70;99.90
10433;DHT22;5263;48.680;9.004;2022-09-30T04:55:31;7.90;99.90
10433;DHT22;5263;48.680;9.004;2022-09-30T04:57:57;7.80;99.90
10433;DHT22;5263;48.680;9.004;2022-09-30T05:00:23;7.90;99.90
10433;DHT22;5263;48.680;9.004;2022-09-30T05:02:49;8.00;99.90
10433;DHT22;5263;48.680;9.004;2022-09-30T05:05:15;7.90;99.90
10433;DHT22;5263;48.680;9.004;2022-09-30T05:07:42;8.00;99.90
10433;DHT22;5263;48.680;9.004;2022-09-30T05:10:09;8.10;99.90
10433;DHT22;5263;48.680;9.004;2022-09-30T05:12:39;8.20;99.90
10433;DHT22;5263;48.680;9.004;2022-09-30T05:15:09;8.10;99.90
10433;DHT22;5263;48.680;9.004;2022-09-30T05:17:35;8.00;99.90
10433;DHT22;5263;48.680;9.004;2022-09-30T05:20:01;8.00;99.90
10433;DHT22;5263;48.680;9.004;2022-09-30T05:22:27;7.90;99.90
10433;DHT22;5263;48.680;9.004;2022-09-30T05:24:53;7.70;99.90
10433;DHT22;5263;48.680;9.004;2022-09-30T05:27:23;7.70;99.90
10433;DHT22;5263;48.680;9.004;2022-09-30T05:29:48;7.70;99.90
10433;DHT22;5263;48.680;9.004;2022-09-30T05:32:15;7.70;99.90
10433;DHT22;5263;48.680;9.004;2022-09-30T05:34:40;7.70;99.90
10433;DHT22;5263;48.680;9.004;2022-09-30T05:37:07;7.70;99.90
10433;DHT22;5263;48.680;9.004;2022-09-30T05:39:34;7.80;99.90
10433;DHT22;5263;48.680;9.004;2022-09-30T05:41:59;7.70;99.90
10433;DHT22;5263;48.680;9.004;2022-09-30T05:44:25;7.90;99.90
10433;DHT22;5263;48.680;9.004;2022-09-30T05:46:51;7.80;99.90
10433;DHT22;5263;48.680;9.004;2022-09-30T05:49:16;7.80;99.90
10433;DHT22;5263;48.680;9.004;2022-09-30T05:51:42;7.90;99.90
10433;DHT22;5263;48.680;9.004;2022-09-30T05:54:09;8.10;99.90
10433;DHT22;5263;48.680;9.004;2022-09-30T05:56:35;8.30;99.90
10433;DHT22;5263;48.680;9.004;2022-09-30T05:59:05;8.40;99.90
10433;DHT22;5263;48.680;9.004;2022-09-30T06:01:31;8.60;99.90
10433;DHT22;5263;48.680;9.004;2022-09-30T06:03:58;8.80;99.90
10433;DHT22;5263;48.680;9.004;2022-09-30T06:06:23;8.80;99.90
10433;DHT22;5263;48.680;9.004;2022-09-30T06:08:50;8.80;99.90
10433;DHT22;5263;48.680;9.004;2022-09-30T06:11:18;8.90;99.90
10433;DHT22;5263;48.680;9.004;2022-09-30T06:13:45;8.90;99.90
10433;DHT22;5263;48.680;9.004;2022-09-30T06:16:12;9.00;99.90
10433;DHT22;5263;48.680;9.004;2022-09-30T06:18:38;9.20;99.90
10433;DHT22;5263;48.680;9.004;2022-09-30T06:21:06;9.50;99.90
10433;DHT22;5263;48.680;9.004;2022-09-30T06:23:33;9.50;99.90
10433;DHT22;5263;48.680;9.004;2022-09-30T06:26:00;9.60;99.90
10433;DHT22;5263;48.680;9.004;2022-09-30T06:28:26;9.70;99.90
10433;DHT22;5263;48.680;9.004;2022-09-30T06:30:52;9.60;99.90
10433;DHT22;5263;48.680;9.004;2022-09-30T06:33:19;9.50;99.90
10433;DHT22;5263;48.680;9.004;2022-09-30T06:35:45;9.50;99.90
10433;DHT22;5263;48.680;9.004;2022-09-30T06:38:15;9.70;99.90
10433;DHT22;5263;48.680;9.004;2022-09-30T06:40:42;9.70;99.90
10433;DHT22;5263;48.680;9.004;2022-09-30T06:43:08;9.70;99.90
10433;DHT22;5263;48.680;9.004;2022-09-30T06:45:34;9.70;99.90
10433;DHT22;5263;48.680;9.004;2022-09-30T06:48:02;9.70;99.90
10433;DHT22;5263;48.680;9.004;2022-09-30T06:50:29;9.70;99.90
10433;DHT22;5263;48.680;9.004;2022-09-30T06:53:03;9.80;99.90
10433;DHT22;5263;48.680;9.004;2022-09-30T06:55:32;9.90;99.90
10433;DHT22;5263;48.680;9.004;2022-09-30T06:58:00;10.00;99.90
10433;DHT22;5263;48.680;9.004;2022-09-30T07:00:26;9.90;99.90
10433;DHT22;5263;48.680;9.004;2022-09-30T07:02:54;10.00;99.90
10433;DHT22;5263;48.680;9.004;2022-09-30T07:05:21;10.10;99.90
10433;DHT22;5263;48.680;9.004;2022-09-30T07:07:47;10.00;99.90
10433;DHT22;5263;48.680;9.004;2022-09-30T07:10:13;9.90;99.90
10433;DHT22;5263;48.680;9.004;2022-09-30T07:12:39;10.10;99.90
10433;DHT22;5263;48.680;9.004;2022-09-30T07:15:06;10.20;99.90
10433;DHT22;5263;48.680;9.004;2022-09-30T07:17:32;10.40;99.90
10433;DHT22;5263;48.680;9.004;2022-09-30T07:19:57;10.60;99.90
10433;DHT22;5263;48.680;9.004;2022-09-30T07:22:23;10.60;99.90
10433;DHT22;5263;48.680;9.004;2022-09-30T07:24:53;10.70;99.90
10433;DHT22;5263;48.680;9.004;2022-09-30T07:27:19;10.20;99.90
10433;DHT22;5263;48.680;9.004;2022-09-30T07:29:46;10.50;99.90
10433;DHT22;5263;48.680;9.004;2022-09-30T07:32:12;10.20;99.90
10433;DHT22;5263;48.680;9.004;2022-09-30T07:34:38;10.30;99.90
10433;DHT22;5263;48.680;9.004;2022-09-30T07:37:08;10.30;99.90
10433;DHT22;5263;48.680;9.004;2022-09-30T07:39:34;10.30;99.90
10433;DHT22;5263;48.680;9.004;2022-09-30T07:42:00;10.40;99.90
10433;DHT22;5263;48.680;9.004;2022-09-30T07:44:27;10.50;99.90
10433;DHT22;5263;48.680;9.004;2022-09-30T07:46:53;10.60;99.90
10433;DHT22;5263;48.680;9.004;2022-09-30T07:49:19;10.60;99.90
10433;DHT22;5263;48.680;9.004;2022-09-30T07:51:51;10.90;99.90
10433;DHT22;5263;48.680;9.004;2022-09-30T07:54:20;11.10;99.90
10433;DHT22;5263;48.680;9.004;2022-09-30T07:56:47;11.30;99.90
10433;DHT22;5263;48.680;9.004;2022-09-30T07:59:13;11.60;99.90
10433;DHT22;5263;48.680;9.004;2022-09-30T08:01:39;11.80;99.90
10433;DHT22;5263;48.680;9.004;2022-09-30T08:04:07;11.60;99.90
10433;DHT22;5263;48.680;9.004;2022-09-30T08:06:36;11.50;99.90
10433;DHT22;5263;48.680;9.004;2022-09-30T08:09:03;11.40;99.90
10433;DHT22;5263;48.680;9.004;2022-09-30T08:11:32;11.30;99.90
10433;DHT22;5263;48.680;9.004;2022-09-30T08:13:58;11.20;99.90
10433;DHT22;5263;48.680;9.004;2022-09-30T08:16:24;11.30;99.90
10433;DHT22;5263;48.680;9.004;2022-09-30T08:18:54;11.50;99.90
10433;DHT22;5263;48.680;9.004;2022-09-30T08:21:21;11.60;99.90
10433;DHT22;5263;48.680;9.004;2022-09-30T08:23:47;11.60;99.90
10433;DHT22;5263;48.680;9.004;2022-09-30T08:26:13;11.80;99.90
10433;DHT22;5263;48.680;9.004;2022-09-30T08:28:40;11.90;99.90
10433;DHT22;5263;48.680;9.004;2022-09-30T08:31:09;11.80;99.90
10433;DHT22;5263;48.680;9.004;2022-09-30T08:33:36;11.90;99.90
10433;DHT22;5263;48.680;9.004;2022-09-30T08:38:33;12.10;99.90
10433;DHT22;5263;48.680;9.004;2022-09-30T08:41:17;12.20;99.90
10433;DHT22;5263;48.680;9.004;2022-09-30T08:47:00;13.00;99.90
10433;DHT22;5263;48.680;9.004;2022-09-30T08:50:07;12.90;99.90
10433;DHT22;5263;48.680;9.004;2022-09-30T08:52:40;12.90;99.90
10433;DHT22;5263;48.680;9.004;2022-09-30T08:55:32;13.40;99.90
10433;DHT22;5263;48.680;9.004;2022-09-30T08:58:01;13.80;99.90
10433;DHT22;5263;48.680;9.004;2022-09-30T09:00:28;14.00;99.90
10433;DHT22;5263;48.680;9.004;2022-09-30T09:02:58;14.00;99.90
10433;DHT22;5263;48.680;9.004;2022-09-30T09:08:12;13.80;99.90
10433;DHT22;5263;48.680;9.004;2022-09-30T09:10:44;13.80;99.90
10433;DHT22;5263;48.680;9.004;2022-09-30T09:16:09;14.10;99.90
10433;DHT22;5263;48.680;9.004;2022-09-30T09:18:47;14.30;99.90
10433;DHT22;5263;48.680;9.004;2022-09-30T09:23:52;13.50;99.90
10433;DHT22;5263;48.680;9.004;2022-09-30T09:26:18;13.50;99.90
10433;DHT22;5263;48.680;9.004;2022-09-30T09:31:31;13.40;99.90
10433;DHT22;5263;48.680;9.004;2022-09-30T09:34:00;14.10;99.90
10433;DHT22;5263;48.680;9.004;2022-09-30T09:36:51;15.70;99.90
10433;DHT22;5263;48.680;9.004;2022-09-30T09:42:41;18.10;99.90
10433;DHT22;5263;48.680;9.004;2022-09-30T09:44:53;20.00;99.90
10433;DHT22;5263;48.680;9.004;2022-09-30T09:47:19;20.80;99.90
10433;DHT22;5263;48.680;9.004;2022-09-30T09:49:51;21.20;99.90
10433;DHT22;5263;48.680;9.004;2022-09-30T09:52:43;20.30;99.90
10433;DHT22;5263;48.680;9.004;2022-09-30T09:55:12;19.40;99.90
10433;DHT22;5263;48.680;9.004;2022-09-30T09:57:38;18.30;99.90
10433;DHT22;5263;48.680;9.004;2022-09-30T10:00:09;17.30;99.90
10433;DHT22;5263;48.680;9.004;2022-09-30T10:05:25;16.90;99.90
10433;DHT22;5263;48.680;9.004;2022-09-30T10:08:17;17.10;99.90
10433;DHT22;5263;48.680;9.004;2022-09-30T10:10:52;16.30;99.90
10433;DHT22;5263;48.680;9.004;2022-09-30T10:13:58;16.20;99.90
10433;DHT22;5263;48.680;9.004;2022-09-30T10:16:32;16.90;99.90
10433;DHT22;5263;48.680;9.004;2022-09-30T10:19:01;17.40;99.90
10433;DHT22;5263;48.680;9.004;2022-09-30T10:21:29;18.50;99.90
10433;DHT22;5263;48.680;9.004;2022-09-30T10:23:55;19.40;99.90
10433;DHT22;5263;48.680;9.004;2022-09-30T10:26:25;20.90;99.50
10433;DHT22;5263;48.680;9.004;2022-09-30T10:28:59;21.10;99.00
10433;DHT22;5263;48.680;9.004;2022-09-30T10:31:41;20.50;98.00
10433;DHT22;5263;48.680;9.004;2022-09-30T10:36:39;18.90;99.90
10433;DHT22;5263;48.680;9.004;2022-09-30T10:39:14;20.00;99.90
10433;DHT22;5263;48.680;9.004;2022-09-30T10:41:41;19.20;99.90
10433;DHT22;5263;48.680;9.004;2022-09-30T10:44:17;20.10;99.90
10433;DHT22;5263;48.680;9.004;2022-09-30T10:46:46;23.20;96.70
10433;DHT22;5263;48.680;9.004;2022-09-30T10:49:42;25.20;92.60
10433;DHT22;5263;48.680;9.004;2022-09-30T10:52:22;23.20;91.40
10433;DHT22;5263;48.680;9.004;2022-09-30T10:54:53;23.60;90.70
10433;DHT22;5263;48.680;9.004;2022-09-30T10:57:26;22.40;88.60
10433;DHT22;5263;48.680;9.004;2022-09-30T11:00:02;21.30;90.00
10433;DHT22;5263;48.680;9.004;2022-09-30T11:02:35;20.00;93.60
10433;DHT22;5263;48.680;9.004;2022-09-30T11:07:53;23.10;88.30
10433;DHT22;5263;48.680;9.004;2022-09-30T11:15:59;27.50;76.50
10433;DHT22;5263;48.680;9.004;2022-09-30T11:18:37;27.80;66.90
10433;DHT22;5263;48.680;9.004;2022-09-30T11:21:15;27.90;63.80
10433;DHT22;5263;48.680;9.004;2022-09-30T11:23:56;27.70;66.20
10433;DHT22;5263;48.680;9.004;2022-09-30T11:29:56;25.50;64.80
10433;DHT22;5263;48.680;9.004;2022-09-30T11:40:28;20.40;76.10
10433;DHT22;5263;48.680;9.004;2022-09-30T11:56:31;19.10;81.70
10433;DHT22;5263;48.680;9.004;2022-09-30T11:59:04;18.80;84.30
10433;DHT22;5263;48.680;9.004;2022-09-30T12:01:41;18.90;85.90
10433;DHT22;5263;48.680;9.004;2022-09-30T12:12:24;17.40;93.00
10433;DHT22;5263;48.680;9.004;2022-09-30T12:15:01;17.00;91.50
10433;DHT22;5263;48.680;9.004;2022-09-30T12:17:43;16.70;93.10
10433;DHT22;5263;48.680;9.004;2022-09-30T12:22:45;16.10;94.60
10433;DHT22;5263;48.680;9.004;2022-09-30T12:25:24;16.20;93.80
10433;DHT22;5263;48.680;9.004;2022-09-30T12:28:05;16.00;95.10
10433;DHT22;5263;48.680;9.004;2022-09-30T12:31:40;16.00;95.70
10433;DHT22;5263;48.680;9.004;2022-09-30T12:39:30;16.30;96.60
10433;DHT22;5263;48.680;9.004;2022-09-30T12:47:47;15.90;97.20
10433;DHT22;5263;48.680;9.004;2022-09-30T12:50:17;15.60;97.60
10433;DHT22;5263;48.680;9.004;2022-09-30T12:52:43;15.70;97.10
10433;DHT22;5263;48.680;9.004;2022-09-30T12:55:26;15.30;97.90
10433;DHT22;5263;48.680;9.004;2022-09-30T12:57:57;15.30;98.40
10433;DHT22;5263;48.680;9.004;2022-09-30T13:00:28;15.40;98.70
10433;DHT22;5263;48.680;9.004;2022-09-30T13:03:05;15.30;98.90
10433;DHT22;5263;48.680;9.004;2022-09-30T13:15:42;14.70;99.90
10433;DHT22;5263;48.680;9.004;2022-09-30T13:23:41;14.70;99.90
10433;DHT22;5263;48.680;9.004;2022-09-30T13:28:49;14.90;99.90
10433;DHT22;5263;48.680;9.004;2022-09-30T13:31:20;15.30;99.90
10433;DHT22;5263;48.680;9.004;2022-09-30T13:34:08;15.40;99.40
10433;DHT22;5263;48.680;9.004;2022-09-30T13:39:30;15.70;99.70
10433;DHT22;5263;48.680;9.004;2022-09-30T13:42:24;15.90;99.20
10433;DHT22;5263;48.680;9.004;2022-09-30T13:48:02;15.90;99.90
10433;DHT22;5263;48.680;9.004;2022-09-30T13:50:54;15.80;99.90
10433;DHT22;5263;48.680;9.004;2022-09-30T13:53:47;15.70;98.90
10433;DHT22;5263;48.680;9.004;2022-09-30T13:56:24;16.10;99.80
10433;DHT22;5263;48.680;9.004;2022-09-30T14:05:02;16.80;96.00
10433;DHT22;5263;48.680;9.004;2022-09-30T14:08:03;17.30;95.80
10433;DHT22;5263;48.680;9.004;2022-09-30T14:21:49;16.70;93.00
10433;DHT22;5263;48.680;9.004;2022-09-30T14:24:25;16.80;95.90
10433;DHT22;5263;48.680;9.004;2022-09-30T14:27:20;17.50;96.10
10433;DHT22;5263;48.680;9.004;2022-09-30T14:32:30;17.90;93.20
10433;DHT22;5263;48.680;9.004;2022-09-30T14:34:58;18.00;94.20
10433;DHT22;5263;48.680;9.004;2022-09-30T14:37:28;17.80;92.20
10433;DHT22;5263;48.680;9.004;2022-09-30T14:39:54;18.20;91.30
10433;DHT22;5263;48.680;9.004;2022-09-30T14:42:32;18.00;90.80
10433;DHT22;5263;48.680;9.004;2022-09-30T14:45:01;18.10;91.40
10433;DHT22;5263;48.680;9.004;2022-09-30T14:47:31;18.10;91.60
10433;DHT22;5263;48.680;9.004;2022-09-30T14:49:58;18.10;91.10
10433;DHT22;5263;48.680;9.004;2022-09-30T14:52:36;18.40;90.30
10433;DHT22;5263;48.680;9.004;2022-09-30T14:55:02;17.70;91.60
10433;DHT22;5263;48.680;9.004;2022-09-30T14:57:29;17.30;93.30
10433;DHT22;5263;48.680;9.004;2022-09-30T15:00:18;16.80;93.60
10433;DHT22;5263;48.680;9.004;2022-09-30T15:02:44;16.70;95.00
10433;DHT22;5263;48.680;9.004;2022-09-30T15:05:12;17.10;92.90
10433;DHT22;5263;48.680;9.004;2022-09-30T15:07:40;17.20;92.70
10433;DHT22;5263;48.680;9.004;2022-09-30T15:10:12;17.40;92.00
10433;DHT22;5263;48.680;9.004;2022-09-30T15:12:41;17.40;91.40
10433;DHT22;5263;48.680;9.004;2022-09-30T15:15:35;17.50;91.40
10433;DHT22;5263;48.680;9.004;2022-09-30T15:18:30;17.20;92.70
10433;DHT22;5263;48.680;9.004;2022-09-30T15:20:59;17.40;91.60
10433;DHT22;5263;48.680;9.004;2022-09-30T15:23:29;17.60;91.00
10433;DHT22;5263;48.680;9.004;2022-09-30T15:25:56;16.70;91.50
10433;DHT22;5263;48.680;9.004;2022-09-30T15:28:22;16.30;92.00
10433;DHT22;5263;48.680;9.004;2022-09-30T15:30:49;16.90;91.50
10433;DHT22;5263;48.680;9.004;2022-09-30T15:33:20;17.20;91.40
10433;DHT22;5263;48.680;9.004;2022-09-30T15:35:48;16.60;92.70
10433;DHT22;5263;48.680;9.004;2022-09-30T15:38:24;16.60;92.30
10433;DHT22;5263;48.680;9.004;2022-09-30T15:41:03;16.80;91.40
10433;DHT22;5263;48.680;9.004;2022-09-30T15:43:35;16.70;91.30
10433;DHT22;5263;48.680;9.004;2022-09-30T15:49:00;17.00;91.20
10433;DHT22;5263;48.680;9.004;2022-09-30T15:54:00;17.30;90.40
10433;DHT22;5263;48.680;9.004;2022-09-30T15:56:34;17.30;90.80
10433;DHT22;5263;48.680;9.004;2022-09-30T15:59:04;17.30;92.00
10433;DHT22;5263;48.680;9.004;2022-09-30T16:01:37;16.60;94.40
10433;DHT22;5263;48.680;9.004;2022-09-30T16:04:07;16.50;95.60
10433;DHT22;5263;48.680;9.004;2022-09-30T16:09:38;16.00;97.60
10433;DHT22;5263;48.680;9.004;2022-09-30T16:17:19;15.30;99.70
10433;DHT22;5263;48.680;9.004;2022-09-30T16:19:54;15.20;99.90
10433;DHT22;5263;48.680;9.004;2022-09-30T16:27:42;14.50;99.90
10433;DHT22;5263;48.680;9.004;2022-09-30T16:30:16;14.40;99.90
10433;DHT22;5263;48.680;9.004;2022-09-30T16:32:44;14.20;99.90
10433;DHT22;5263;48.680;9.004;2022-09-30T16:35:19;14.00;99.90
10433;DHT22;5263;48.680;9.004;2022-09-30T16:37:46;14.00;99.90
10433;DHT22;5263;48.680;9.004;2022-09-30T16:40:24;14.00;99.90
10433;DHT22;5263;48.680;9.004;2022-09-30T16:42:51;13.90;99.90
10433;DHT22;5263;48.680;9.004;2022-09-30T16:45:19;13.80;99.90
10433;DHT22;5263;48.680;9.004;2022-09-30T16:47:45;13.30;99.90
10433;DHT22;5263;48.680;9.004;2022-09-30T16:50:19;12.80;99.90
10433;DHT22;5263;48.680;9.004;2022-09-30T16:52:46;12.60;99.90
10433;DHT22;5263;48.680;9.004;2022-09-30T16:55:12;12.60;99.90
10433;DHT22;5263;48.680;9.004;2022-09-30T16:57:37;12.60;99.90
10433;DHT22;5263;48.680;9.004;2022-09-30T17:00:05;12.30;99.90
10433;DHT22;5263;48.680;9.004;2022-09-30T17:02:31;12.40;99.90
10433;DHT22;5263;48.680;9.004;2022-09-30T17:04:56;12.40;99.90
10433;DHT22;5263;48.680;9.004;2022-09-30T17:07:22;12.40;99.90
10433;DHT22;5263;48.680;9.004;2022-09-30T17:09:47;12.40;99.90
10433;DHT22;5263;48.680;9.004;2022-09-30T17:12:14;12.30;99.90
10433;DHT22;5263;48.680;9.004;2022-09-30T17:14:40;12.00;99.90
10433;DHT22;5263;48.680;9.004;2022-09-30T17:17:08;11.90;99.90
10433;DHT22;5263;48.680;9.004;2022-09-30T17:19:34;11.90;99.90
10433;DHT22;5263;48.680;9.004;2022-09-30T17:22:03;11.70;99.90
10433;DHT22;5263;48.680;9.004;2022-09-30T17:24:30;11.70;99.90
10433;DHT22;5263;48.680;9.004;2022-09-30T17:26:56;11.60;99.90
10433;DHT22;5263;48.680;9.004;2022-09-30T17:29:22;11.40;99.90
10433;DHT22;5263;48.680;9.004;2022-09-30T17:31:48;11.70;99.90
10433;DHT22;5263;48.680;9.004;2022-09-30T17:34:13;11.30;99.90
10433;DHT22;5263;48.680;9.004;2022-09-30T17:36:39;10.80;99.90
10433;DHT22;5263;48.680;9.004;2022-09-30T17:39:06;10.40;99.90
10433;DHT22;5263;48.680;9.004;2022-09-30T17:41:32;10.20;99.90
10433;DHT22;5263;48.680;9.004;2022-09-30T17:44:17;10.20;99.90
10433;DHT22;5263;48.680;9.004;2022-09-30T17:46:44;10.30;99.90
10433;DHT22;5263;48.680;9.004;2022-09-30T17:49:10;10.10;99.90
10433;DHT22;5263;48.680;9.004;2022-09-30T17:51:36;10.30;99.90
10433;DHT22;5263;48.680;9.004;2022-09-30T17:54:04;10.40;99.90
10433;DHT22;5263;48.680;9.004;2022-09-30T17:56:30;10.40;99.90
10433;DHT22;5263;48.680;9.004;2022-09-30T17:58:55;10.40;99.90
10433;DHT22;5263;48.680;9.004;2022-09-30T18:01:21;10.40;99.90
10433;DHT22;5263;48.680;9.004;2022-09-30T18:03:47;10.00;99.90
10433;DHT22;5263;48.680;9.004;2022-09-30T18:06:17;9.80;99.90
10433;DHT22;5263;48.680;9.004;2022-09-30T18:08:47;10.00;99.90
10433;DHT22;5263;48.680;9.004;2022-09-30T18:11:19;10.00;99.90
10433;DHT22;5263;48.680;9.004;2022-09-30T18:13:50;10.10;99.90
10433;DHT22;5263;48.680;9.004;2022-09-30T18:16:16;9.90;99.90
10433;DHT22;5263;48.680;9.004;2022-09-30T18:18:42;9.60;99.90
10433;DHT22;5263;48.680;9.004;2022-09-30T18:21:10;9.60;99.90
10433;DHT22;5263;48.680;9.004;2022-09-30T18:23:36;9.60;99.90
10433;DHT22;5263;48.680;9.004;2022-09-30T18:26:01;9.70;99.90
10433;DHT22;5263;48.680;9.004;2022-09-30T18:28:27;9.80;99.90
10433;DHT22;5263;48.680;9.004;2022-09-30T18:30:53;9.80;99.90
10433;DHT22;5263;48.680;9.004;2022-09-30T18:33:18;9.70;99.90
10433;DHT22;5263;48.680;9.004;2022-09-30T18:35:46;9.60;99.90
10433;DHT22;5263;48.680;9.004;2022-09-30T18:38:12;9.50;99.90
10433;DHT22;5263;48.680;9.004;2022-09-30T18:40:42;9.50;99.90
10433;DHT22;5263;48.680;9.004;2022-09-30T18:43:12;9.90;99.90
10433;DHT22;5263;48.680;9.004;2022-09-30T18:45:38;9.90;99.90
10433;DHT22;5263;48.680;9.004;2022-09-30T18:48:04;9.80;99.90
10433;DHT22;5263;48.680;9.004;2022-09-30T18:50:32;9.90;99.90
10433;DHT22;5263;48.680;9.004;2022-09-30T18:52:59;9.80;99.90
10433;DHT22;5263;48.680;9.004;2022-09-30T18:55:32;9.90;99.90
10433;DHT22;5263;48.680;9.004;2022-09-30T18:57:59;9.80;99.90
10433;DHT22;5263;48.680;9.004;2022-09-30T19:00:24;9.80;99.90
10433;DHT22;5263;48.680;9.004;2022-09-30T19:02:56;9.50;99.90
10433;DHT22;5263;48.680;9.004;2022-09-30T19:05:21;9.10;99.90
10433;DHT22;5263;48.680;9.004;2022-09-30T19:07:47;8.90;99.90
10433;DHT22;5263;48.680;9.004;2022-09-30T19:10:13;8.70;99.90
10433;DHT22;5263;48.680;9.004;2022-09-30T19:12:40;8.50;99.90
10433;DHT22;5263;48.680;9.004;2022-09-30T19:15:10;8.80;99.90
10433;DHT22;5263;48.680;9.004;2022-09-30T19:17:36;8.70;99.90
10433;DHT22;5263;48.680;9.004;2022-09-30T19:20:03;8.60;99.90
10433;DHT22;5263;48.680;9.004;2022-09-30T19:22:29;8.70;99.90
10433;DHT22;5263;48.680;9.004;2022-09-30T19:24:55;8.70;99.90
10433;DHT22;5263;48.680;9.004;2022-09-30T19:27:21;8.60;99.90
10433;DHT22;5263;48.680;9.004;2022-09-30T19:29:49;8.50;99.90
10433;DHT22;5263;48.680;9.004;2022-09-30T19:32:16;8.90;99.90